Terminal Aerodrome Forecast
Issued by NWS Memphis, TN

Home | Current Version | Previous Version | Text Only | Print | Product List | Glossary On
Versions: 1 2 3 4 5 6 7 8 9 10 11 12 13 14 15 16 17 18 19 20 21 22 23 24 25 26 27 28 29
000
FTUS44 KMEG 201730
TAFMEM
TAF
KMEM 201730Z 2018/2118 19010G18KT P6SM SCT015 OVC025
     FM202200 20010G16KT P6SM SCT030 BKN250
     FM210000 19006KT P6SM BKN150
     FM211000 19008KT P6SM VCSH SCT030 BKN080
     FM211400 18011KT P6SM VCSH OVC060=

USA.gov is the U.S. government's official web portal to all federal, state and local government web resources and services.